createdAt,value
2022-10-13T00:01:09.401Z,7.83
2022-10-13T00:03:38.483Z,7.98
2022-10-13T00:06:08.405Z,7.95
2022-10-13T00:08:37.222Z,7.99
2022-10-13T00:11:13.278Z,7.76
2022-10-13T00:13:42.305Z,7.81
2022-10-13T00:16:11.123Z,7.92
2022-10-13T00:18:39.605Z,8.04
2022-10-13T00:21:09.232Z,8.07
2022-10-13T00:23:37.861Z,8.00
2022-10-13T00:26:08.535Z,8.02
2022-10-13T00:28:38.277Z,8.17
2022-10-13T00:31:16.125Z,8.27
2022-10-13T00:33:45.365Z,8.37
2022-10-13T00:36:14.332Z,7.95
2022-10-13T00:38:42.821Z,8.19
2022-10-13T00:41:11.122Z,8.02
2022-10-13T00:43:58.717Z,8.04
2022-10-13T00:46:28.397Z,8.27
2022-10-13T00:49:02.441Z,7.91
2022-10-13T00:51:34.449Z,8.23
2022-10-13T00:54:04.448Z,8.08
2022-10-13T00:56:33.019Z,7.87
2022-10-13T00:59:04.253Z,8.06
2022-10-13T01:01:33.050Z,8.10
2022-10-13T01:04:01.330Z,8.04
2022-10-13T01:06:29.380Z,8.01
2022-10-13T01:08:57.369Z,8.13
2022-10-13T01:11:48.948Z,8.09
2022-10-13T01:14:29.239Z,8.14
2022-10-13T01:17:06.566Z,8.23
2022-10-13T01:20:05.732Z,8.24
2022-10-13T01:22:46.398Z,8.04
2022-10-13T01:25:28.965Z,8.00
2022-10-13T01:28:24.011Z,8.12
2022-10-13T01:30:59.710Z,8.26
2022-10-13T01:33:35.139Z,8.21
2022-10-13T01:36:14.506Z,8.27
2022-10-13T01:38:48.978Z,8.34
2022-10-13T01:41:23.687Z,8.45
2022-10-13T01:43:57.552Z,8.76
2022-10-13T01:46:30.070Z,9.01
2022-10-13T01:49:01.794Z,8.94
2022-10-13T01:51:32.462Z,8.84
2022-10-13T01:54:00.809Z,8.88
2022-10-13T01:56:28.812Z,8.78
2022-10-13T01:59:00.728Z,8.83
2022-10-13T02:01:47.417Z,9.12
2022-10-13T02:04:30.983Z,9.15
2022-10-13T02:07:05.135Z,9.30
2022-10-13T02:09:42.389Z,9.39
2022-10-13T02:12:16.338Z,9.43
2022-10-13T02:14:48.005Z,9.36
2022-10-13T02:17:18.200Z,9.21
2022-10-13T02:19:46.685Z,9.13
2022-10-13T02:22:17.426Z,9.38
2022-10-13T02:24:45.764Z,9.19
2022-10-13T02:27:14.813Z,9.29
2022-10-13T02:29:54.243Z,9.21
2022-10-13T02:32:23.936Z,9.33
2022-10-13T02:34:53.315Z,9.27
2022-10-13T02:37:21.498Z,9.21
2022-10-13T02:39:49.974Z,9.24
2022-10-13T02:42:18.726Z,9.12
2022-10-13T02:44:47.902Z,9.18
2022-10-13T02:47:16.091Z,9.16
2022-10-13T02:49:45.456Z,9.19
2022-10-13T02:52:13.513Z,9.20
2022-10-13T02:54:43.339Z,9.24
2022-10-13T02:57:11.391Z,9.29
2022-10-13T02:59:39.580Z,9.29
2022-10-13T03:02:07.656Z,9.30
2022-10-13T03:04:36.439Z,9.34
2022-10-13T03:07:06.106Z,9.39
2022-10-13T03:09:34.404Z,9.41
2022-10-13T03:12:02.836Z,9.48
2022-10-13T03:14:30.952Z,9.45
2022-10-13T03:16:59.018Z,9.54
2022-10-13T03:19:27.146Z,9.62
2022-10-13T03:21:55.234Z,9.58
2022-10-13T03:24:24.615Z,9.61
2022-10-13T03:26:52.771Z,9.64
2022-10-13T03:29:23.029Z,9.85
2022-10-13T03:31:51.096Z,9.96
2022-10-13T03:34:20.226Z,10.22
2022-10-13T03:36:48.449Z,10.21
2022-10-13T03:39:16.612Z,9.95
2022-10-13T03:41:46.226Z,9.72
2022-10-13T03:44:14.654Z,9.78
2022-10-13T03:46:42.751Z,9.94
2022-10-13T03:49:12.111Z,10.12
2022-10-13T03:51:40.459Z,9.88
2022-10-13T03:54:08.496Z,9.82
2022-10-13T03:56:37.323Z,9.76
2022-10-13T03:59:07.281Z,9.71
2022-10-13T04:01:35.658Z,9.75
2022-10-13T04:04:03.995Z,9.83
2022-10-13T04:06:32.542Z,10.02
2022-10-13T04:09:01.624Z,10.00
2022-10-13T04:11:29.555Z,9.95
2022-10-13T04:13:58.767Z,9.98
2022-10-13T04:16:30.421Z,10.09
2022-10-13T04:19:00.163Z,10.05
2022-10-13T04:21:29.393Z,10.08
2022-10-13T04:23:58.189Z,10.13
2022-10-13T04:26:28.696Z,10.13
2022-10-13T04:28:58.647Z,10.14
2022-10-13T04:31:30.444Z,10.17
2022-10-13T04:33:59.418Z,10.16
2022-10-13T04:36:28.103Z,10.21
2022-10-13T04:38:56.232Z,10.20
2022-10-13T04:41:24.421Z,10.20
2022-10-13T04:43:53.557Z,10.22
2022-10-13T04:46:23.638Z,10.22
2022-10-13T04:48:54.859Z,10.24
2022-10-13T04:51:26.752Z,10.36
2022-10-13T04:53:56.246Z,10.50
2022-10-13T04:56:24.475Z,10.58
2022-10-13T04:58:52.568Z,10.46
2022-10-13T05:01:22.679Z,10.39
2022-10-13T05:03:57.893Z,10.42
2022-10-13T05:06:28.497Z,10.42
2022-10-13T05:08:57.347Z,10.41
2022-10-13T05:11:27.598Z,10.38
2022-10-13T05:13:56.273Z,10.39
2022-10-13T05:16:25.321Z,10.43
2022-10-13T05:18:56.256Z,10.42
2022-10-13T05:21:26.544Z,10.45
2022-10-13T05:23:55.771Z,10.46
2022-10-13T05:26:28.540Z,10.48
2022-10-13T05:28:56.844Z,10.48
2022-10-13T05:31:28.960Z,10.52
2022-10-13T05:33:58.832Z,10.52
2022-10-13T05:36:30.125Z,10.61
2022-10-13T05:39:00.071Z,10.62
2022-10-13T05:41:29.570Z,10.65
2022-10-13T05:44:01.639Z,10.67
2022-10-13T05:46:29.914Z,10.66
2022-10-13T05:48:59.598Z,10.65
2022-10-13T05:51:31.848Z,10.70
2022-10-13T05:54:04.977Z,10.71
2022-10-13T05:56:38.133Z,10.72
2022-10-13T05:59:09.458Z,10.75
2022-10-13T06:01:41.542Z,10.81
2022-10-13T06:04:15.593Z,10.86
2022-10-13T06:06:46.796Z,10.88
2022-10-13T06:09:14.834Z,10.91
2022-10-13T06:11:43.261Z,10.92
2022-10-13T06:14:11.628Z,11.26
2022-10-13T06:16:39.636Z,11.29
2022-10-13T06:19:07.828Z,11.53
2022-10-13T06:21:37.259Z,11.45
2022-10-13T06:24:05.866Z,11.26
2022-10-13T06:26:33.887Z,11.22
2022-10-13T06:29:02.137Z,11.26
2022-10-13T06:31:30.428Z,11.28
2022-10-13T06:33:59.437Z,11.32
2022-10-13T06:36:27.838Z,11.35
2022-10-13T06:38:57.383Z,11.39
2022-10-13T06:41:25.833Z,11.58
2022-10-13T06:43:53.837Z,11.78
2022-10-13T06:46:22.524Z,11.85
2022-10-13T06:48:51.643Z,11.81
2022-10-13T06:51:21.428Z,11.83
2022-10-13T06:53:50.941Z,12.21
2022-10-13T06:56:24.695Z,12.45
2022-10-13T06:58:52.811Z,12.30
2022-10-13T07:01:21.608Z,11.94
2022-10-13T07:03:50.269Z,12.06
2022-10-13T07:06:21.214Z,12.18
2022-10-13T07:08:53.027Z,12.11
2022-10-13T07:11:24.188Z,12.17
2022-10-13T07:13:57.605Z,12.30
2022-10-13T07:16:25.783Z,12.27
2022-10-13T07:18:53.900Z,12.30
2022-10-13T07:21:23.017Z,12.30
2022-10-13T07:23:52.123Z,12.38
2022-10-13T07:26:20.610Z,12.46
2022-10-13T07:28:50.092Z,13.06
2022-10-13T07:31:20.405Z,12.97
2022-10-13T07:33:50.943Z,13.23
2022-10-13T07:36:19.876Z,13.24
2022-10-13T07:38:48.258Z,13.12
2022-10-13T07:41:16.833Z,13.28
2022-10-13T07:43:45.307Z,13.74
2022-10-13T07:46:15.159Z,14.04
2022-10-13T07:48:43.346Z,14.14
2022-10-13T07:51:13.707Z,14.07
2022-10-13T07:53:42.871Z,13.94
2022-10-13T07:56:13.366Z,13.99
2022-10-13T07:58:44.492Z,13.98
2022-10-13T08:01:14.445Z,13.83
2022-10-13T08:03:45.751Z,13.68
2022-10-13T08:06:20.781Z,13.50
2022-10-13T08:08:52.260Z,13.48
2022-10-13T08:11:20.419Z,13.43
2022-10-13T08:13:49.888Z,13.39
2022-10-13T08:16:23.683Z,13.29
2022-10-13T08:18:51.828Z,13.10
2022-10-13T08:24:13.535Z,13.38
2022-10-13T08:26:42.527Z,13.43
2022-10-13T08:29:26.524Z,13.46
2022-10-13T08:31:56.276Z,13.71
2022-10-13T08:34:25.097Z,13.82
2022-10-13T08:36:56.217Z,13.84
2022-10-13T08:39:25.560Z,14.02
2022-10-13T08:41:55.292Z,13.94
2022-10-13T08:45:06.283Z,14.05
2022-10-13T08:47:39.187Z,14.09
2022-10-13T08:50:14.390Z,14.10
2022-10-13T08:52:48.278Z,14.22
2022-10-13T08:55:25.119Z,14.22
2022-10-13T08:57:53.674Z,14.28
2022-10-13T09:00:27.845Z,14.36
2022-10-13T09:03:18.617Z,14.33
2022-10-13T09:05:59.422Z,14.09
2022-10-13T09:08:33.767Z,14.07
2022-10-13T09:11:03.592Z,14.17
2022-10-13T09:13:31.863Z,14.25
2022-10-13T09:15:59.847Z,14.43
2022-10-13T09:18:32.675Z,14.07
2022-10-13T09:21:18.157Z,14.13
2022-10-13T09:23:46.463Z,14.44
2022-10-13T09:26:21.127Z,14.67
2022-10-13T09:28:49.887Z,14.77
2022-10-13T09:31:22.669Z,14.99
2022-10-13T09:33:59.819Z,15.28
2022-10-13T09:36:28.696Z,15.64
2022-10-13T09:39:09.534Z,15.53
2022-10-13T09:41:40.252Z,15.57
2022-10-13T09:44:14.432Z,15.77
2022-10-13T09:46:49.914Z,15.69
2022-10-13T09:49:34.699Z,15.89
2022-10-13T09:52:16.080Z,15.92
2022-10-13T09:54:50.081Z,15.75
2022-10-13T09:57:32.675Z,15.46
2022-10-13T10:00:08.778Z,15.51
2022-10-13T10:02:46.352Z,15.66
2022-10-13T10:05:24.767Z,15.93
2022-10-13T10:08:03.627Z,14.60
2022-10-13T10:10:37.050Z,14.82
2022-10-13T10:13:11.443Z,15.65
2022-10-13T10:15:51.678Z,16.44
2022-10-13T10:18:26.404Z,16.89
2022-10-13T10:21:09.906Z,17.02
2022-10-13T10:23:49.895Z,17.25
2022-10-13T10:26:24.264Z,16.86
2022-10-13T10:29:08.975Z,16.67
2022-10-13T10:31:54.199Z,16.72
2022-10-13T10:34:31.964Z,16.98
2022-10-13T10:37:13.996Z,16.09
2022-10-13T10:39:48.903Z,16.26
2022-10-13T10:42:51.145Z,16.19
2022-10-13T10:45:24.343Z,16.79
2022-10-13T10:47:57.227Z,16.74
2022-10-13T10:50:29.679Z,17.27
2022-10-13T10:53:03.787Z,17.33
2022-10-13T10:55:36.605Z,16.44
2022-10-13T10:58:20.912Z,16.95
2022-10-13T11:00:58.336Z,17.24
2022-10-13T11:03:37.491Z,17.29
2022-10-13T11:06:21.958Z,17.41
2022-10-13T11:08:51.864Z,15.49
2022-10-13T11:11:38.270Z,16.54
2022-10-13T11:14:30.580Z,16.67
2022-10-13T11:17:28.263Z,17.05
2022-10-13T11:19:57.123Z,16.37
2022-10-13T11:22:26.475Z,17.37
2022-10-13T11:25:40.464Z,17.09
2022-10-13T11:28:44.266Z,16.83
2022-10-13T11:31:41.164Z,17.39
2022-10-13T11:34:27.990Z,16.41
2022-10-13T11:36:57.839Z,16.54
2022-10-13T11:39:53.310Z,17.17
2022-10-13T11:42:38.202Z,17.99
2022-10-13T11:45:18.974Z,17.05
2022-10-13T11:48:34.791Z,17.34
2022-10-13T11:51:16.514Z,17.88
2022-10-13T11:53:54.691Z,18.03
2022-10-13T11:56:24.089Z,18.03
2022-10-13T11:58:53.566Z,17.99
2022-10-13T12:01:21.590Z,18.25
2022-10-13T12:03:49.737Z,18.41
2022-10-13T12:06:34.841Z,18.57
2022-10-13T12:09:05.581Z,18.13
2022-10-13T12:11:37.375Z,18.04
2022-10-13T12:14:20.513Z,16.84
2022-10-13T12:19:29.957Z,18.50
2022-10-13T12:22:00.099Z,17.40
2022-10-13T12:24:30.258Z,18.00
2022-10-13T12:26:59.451Z,17.77
2022-10-13T12:29:36.291Z,17.93
2022-10-13T12:32:18.828Z,17.49
2022-10-13T12:34:47.069Z,17.08
2022-10-13T12:37:26.217Z,17.89
2022-10-13T12:39:55.205Z,18.19
2022-10-13T12:42:29.876Z,17.03
2022-10-13T12:45:01.745Z,17.92
2022-10-13T12:47:50.353Z,18.46
2022-10-13T12:50:36.794Z,18.45
2022-10-13T12:53:12.278Z,17.80
2022-10-13T12:55:52.540Z,17.88
2022-10-13T12:58:24.907Z,17.85
2022-10-13T13:00:59.555Z,17.67
2022-10-13T13:03:30.466Z,17.49
2022-10-13T13:06:23.954Z,16.48
2022-10-13T13:09:09.978Z,17.93
2022-10-13T13:11:39.748Z,17.93
2022-10-13T13:14:37.535Z,17.64
2022-10-13T13:17:12.143Z,18.60
2022-10-13T13:19:41.668Z,19.15
2022-10-13T13:22:13.450Z,19.21
2022-10-13T13:24:41.920Z,19.76
2022-10-13T13:27:18.578Z,19.32
2022-10-13T13:29:47.061Z,19.15
2022-10-13T13:32:20.270Z,18.56
2022-10-13T13:34:49.013Z,18.70
2022-10-13T13:37:30.833Z,18.24
2022-10-13T13:39:59.514Z,17.69
2022-10-13T13:42:29.537Z,17.72
2022-10-13T13:44:57.926Z,17.60
2022-10-13T13:47:29.061Z,17.69
2022-10-13T13:49:57.946Z,17.38
2022-10-13T13:52:26.776Z,17.76
2022-10-13T13:54:56.157Z,17.69
2022-10-13T13:57:24.219Z,18.02
2022-10-13T13:59:52.302Z,17.79
2022-10-13T14:02:22.475Z,17.84
2022-10-13T14:04:53.327Z,17.60
2022-10-13T14:07:21.981Z,17.36
2022-10-13T14:09:53.752Z,17.19
2022-10-13T14:12:22.944Z,17.24
2022-10-13T14:14:51.443Z,17.59
2022-10-13T14:17:23.184Z,17.82
2022-10-13T14:19:52.561Z,17.96
2022-10-13T14:22:21.069Z,18.07
2022-10-13T14:24:49.261Z,17.40
2022-10-13T14:27:17.322Z,17.62
2022-10-13T14:29:45.490Z,17.27
2022-10-13T14:32:13.593Z,17.15
2022-10-13T14:34:41.700Z,17.51
2022-10-13T14:37:11.324Z,17.52
2022-10-13T14:39:39.500Z,17.28
2022-10-13T14:42:07.548Z,17.44
2022-10-13T14:44:35.562Z,17.35
2022-10-13T14:47:03.840Z,17.26
2022-10-13T14:49:31.810Z,16.95
2022-10-13T14:52:00.667Z,16.81
2022-10-13T14:54:30.591Z,16.88
2022-10-13T14:57:05.182Z,16.72
2022-10-13T14:59:33.340Z,16.80
2022-10-13T15:02:01.727Z,16.78
2022-10-13T15:04:29.831Z,16.86
2022-10-13T15:06:58.082Z,16.83
2022-10-13T15:09:38.728Z,16.93
2022-10-13T15:12:17.004Z,16.90
2022-10-13T15:14:45.158Z,16.85
2022-10-13T15:17:13.206Z,16.77
2022-10-13T15:19:41.192Z,16.86
2022-10-13T15:22:10.185Z,16.64
2022-10-13T15:24:38.157Z,16.57
2022-10-13T15:27:06.209Z,16.56
2022-10-13T15:29:36.640Z,16.72
2022-10-13T15:32:09.818Z,16.66
2022-10-13T15:34:39.649Z,16.67
2022-10-13T15:37:07.865Z,16.77
2022-10-13T15:39:35.984Z,16.69
2022-10-13T15:42:04.211Z,16.65
2022-10-13T15:44:50.916Z,16.65
2022-10-13T15:47:21.835Z,16.63
2022-10-13T15:49:49.857Z,16.42
2022-10-13T15:52:18.086Z,16.42
2022-10-13T15:54:46.367Z,16.27
2022-10-13T15:57:14.853Z,16.19
2022-10-13T15:59:43.170Z,16.07
2022-10-13T16:02:11.812Z,16.17
2022-10-13T16:04:41.182Z,15.98
2022-10-13T16:07:09.190Z,15.84
2022-10-13T16:09:37.257Z,15.88
2022-10-13T16:12:05.623Z,15.79
2022-10-13T16:14:34.009Z,15.64
2022-10-13T16:17:02.089Z,15.62
2022-10-13T16:19:30.065Z,15.59
2022-10-13T16:21:59.506Z,15.59
2022-10-13T16:24:27.477Z,15.54
2022-10-13T16:26:55.399Z,15.26
2022-10-13T16:29:25.129Z,15.25
2022-10-13T16:31:53.121Z,15.18
2022-10-13T16:34:21.294Z,15.10
2022-10-13T16:36:51.098Z,15.03
2022-10-13T16:39:20.883Z,15.00
2022-10-13T16:41:48.895Z,14.94
2022-10-13T16:44:16.994Z,14.75
2022-10-13T16:46:45.392Z,14.44
2022-10-13T16:49:13.725Z,14.23
2022-10-13T16:51:43.268Z,14.11
2022-10-13T16:54:11.346Z,14.16
2022-10-13T16:56:40.765Z,14.29
2022-10-13T16:59:08.893Z,14.43
2022-10-13T17:01:37.605Z,14.39
2022-10-13T17:04:06.013Z,14.10
2022-10-13T17:06:37.358Z,13.93
2022-10-13T17:09:06.310Z,13.82
2022-10-13T17:11:37.194Z,13.88
2022-10-13T17:14:07.834Z,13.96
2022-10-13T17:16:36.005Z,13.90
2022-10-13T17:19:05.058Z,13.83
2022-10-13T17:21:37.613Z,13.75
2022-10-13T17:24:08.729Z,13.78
2022-10-13T17:26:37.171Z,13.72
2022-10-13T17:29:07.034Z,13.62
2022-10-13T17:31:35.047Z,13.53
2022-10-13T17:34:03.047Z,13.40
2022-10-13T17:36:34.100Z,13.30
2022-10-13T17:39:10.768Z,13.25
2022-10-13T17:41:41.794Z,13.15
2022-10-13T17:44:11.788Z,13.08
2022-10-13T17:46:40.058Z,13.03
2022-10-13T17:49:10.625Z,12.93
2022-10-13T17:51:39.356Z,12.93
2022-10-13T17:54:11.607Z,12.95
2022-10-13T17:56:42.676Z,12.92
2022-10-13T17:59:12.043Z,13.21
2022-10-13T18:01:42.032Z,13.25
2022-10-13T18:04:13.121Z,13.56
2022-10-13T18:06:43.978Z,13.62
2022-10-13T18:09:14.523Z,13.51
2022-10-13T18:11:50.264Z,13.14
2022-10-13T18:14:21.842Z,13.18
2022-10-13T18:16:50.155Z,13.15
2022-10-13T18:19:18.381Z,13.03
2022-10-13T18:21:46.449Z,12.95
2022-10-13T18:24:14.915Z,12.97
2022-10-13T18:26:43.063Z,12.79
2022-10-13T18:29:13.180Z,12.74
2022-10-13T18:31:43.613Z,12.64
2022-10-13T18:34:15.208Z,12.58
2022-10-13T18:36:47.080Z,12.56
2022-10-13T18:39:17.265Z,12.49
2022-10-13T18:41:48.460Z,12.60
2022-10-13T18:44:17.247Z,12.62
2022-10-13T18:46:50.213Z,12.51
2022-10-13T18:49:20.631Z,12.43
2022-10-13T18:51:51.551Z,12.40
2022-10-13T18:54:20.226Z,12.36
2022-10-13T18:56:48.526Z,12.33
2022-10-13T18:59:17.660Z,12.30
2022-10-13T19:01:47.911Z,12.27
2022-10-13T19:04:16.985Z,12.27
2022-10-13T19:06:46.409Z,12.26
2022-10-13T19:09:17.472Z,12.24
2022-10-13T19:11:46.317Z,12.22
2022-10-13T19:14:20.574Z,12.19
2022-10-13T19:16:50.016Z,12.18
2022-10-13T19:19:18.133Z,12.16
2022-10-13T19:21:46.157Z,12.20
2022-10-13T19:24:14.316Z,12.20
2022-10-13T19:26:42.334Z,12.20
2022-10-13T19:29:13.032Z,12.23
2022-10-13T19:31:43.067Z,12.24
2022-10-13T19:34:14.331Z,12.26
2022-10-13T19:36:45.462Z,12.28
2022-10-13T19:39:16.696Z,12.26
2022-10-13T19:41:46.487Z,12.29
2022-10-13T19:44:15.274Z,12.27
2022-10-13T19:46:45.032Z,12.25
2022-10-13T19:49:18.088Z,12.24
2022-10-13T19:51:46.739Z,12.25
2022-10-13T19:54:15.266Z,12.23
2022-10-13T19:56:48.292Z,12.20
2022-10-13T19:59:17.518Z,12.21
2022-10-13T20:01:45.655Z,12.23
2022-10-13T20:04:18.376Z,12.24
2022-10-13T20:06:48.013Z,12.20
2022-10-13T20:09:17.275Z,12.18
2022-10-13T20:11:46.281Z,12.17
2022-10-13T20:14:14.526Z,12.16
2022-10-13T20:16:43.255Z,12.14
2022-10-13T20:19:13.647Z,12.14
2022-10-13T20:21:44.289Z,12.15
2022-10-13T20:24:13.431Z,12.13
2022-10-13T20:26:41.816Z,12.14
2022-10-13T20:29:10.980Z,12.12
2022-10-13T20:31:39.094Z,12.11
2022-10-13T20:34:07.563Z,12.11
2022-10-13T20:36:38.745Z,12.11
2022-10-13T20:39:09.384Z,12.10
2022-10-13T20:41:37.575Z,12.08
2022-10-13T20:44:05.590Z,12.08
2022-10-13T20:46:35.339Z,12.09
2022-10-13T20:49:12.685Z,12.10
2022-10-13T20:51:41.985Z,12.09
2022-10-13T20:54:12.421Z,12.11
2022-10-13T20:56:40.836Z,12.12
2022-10-13T20:59:11.362Z,12.13
2022-10-13T21:01:40.562Z,12.12
2022-10-13T21:04:08.625Z,12.22
2022-10-13T21:06:37.728Z,12.48
2022-10-13T21:09:06.860Z,12.58
2022-10-13T21:11:37.305Z,12.95
2022-10-13T21:14:07.049Z,13.03
2022-10-13T21:16:35.810Z,12.82
2022-10-13T21:19:08.008Z,12.58
2022-10-13T21:21:36.954Z,12.51
2022-10-13T21:25:04.753Z,-141.31
2022-10-13T21:28:33.059Z,-141.31
2022-10-13T21:31:08.224Z,-141.31
2022-10-13T21:34:35.187Z,-141.31
2022-10-13T21:38:00.177Z,-141.31
2022-10-13T21:41:26.912Z,-141.31
2022-10-13T21:44:54.914Z,-141.31
2022-10-13T21:48:22.820Z,-141.31
2022-10-13T21:51:49.645Z,-141.31
2022-10-13T21:55:16.520Z,-141.31
2022-10-13T21:58:43.305Z,-141.31
2022-10-13T22:01:36.525Z,12.56
2022-10-13T22:05:03.188Z,-141.31
2022-10-13T22:07:32.018Z,12.51
2022-10-13T22:10:13.028Z,12.51
2022-10-13T22:13:40.097Z,-141.31
2022-10-13T22:16:57.269Z,-141.31
2022-10-13T22:20:23.421Z,-141.31
2022-10-13T22:23:38.210Z,12.51
2022-10-13T22:26:08.912Z,12.51
2022-10-13T22:29:05.876Z,-141.31
2022-10-13T22:32:21.960Z,-141.31
2022-10-13T22:35:48.470Z,-141.31
2022-10-13T22:38:17.403Z,12.51
2022-10-13T22:40:45.433Z,-141.31
2022-10-13T22:44:12.066Z,-141.31
2022-10-13T22:47:39.758Z,-141.31
2022-10-13T22:51:07.161Z,-141.31
2022-10-13T22:54:34.010Z,-141.31
2022-10-13T22:58:00.640Z,-141.31
2022-10-13T23:01:27.637Z,-141.31
2022-10-13T23:04:56.547Z,-141.31
2022-10-13T23:08:23.250Z,-141.31
2022-10-13T23:11:49.751Z,-141.31
2022-10-13T23:15:18.855Z,-141.31
2022-10-13T23:18:45.665Z,-141.31
2022-10-13T23:22:00.441Z,12.51
2022-10-13T23:24:29.033Z,11.35
2022-10-13T23:27:00.346Z,11.53
2022-10-13T23:29:28.589Z,11.41
2022-10-13T23:31:56.621Z,11.32
2022-10-13T23:34:24.740Z,11.28
2022-10-13T23:36:54.145Z,11.48
2022-10-13T23:39:22.158Z,11.32
2022-10-13T23:41:50.206Z,11.22
2022-10-13T23:44:20.475Z,11.28
2022-10-13T23:46:48.808Z,11.32
2022-10-13T23:49:17.467Z,11.41
2022-10-13T23:51:46.023Z,11.30
2022-10-13T23:54:15.406Z,11.31
2022-10-13T23:56:43.413Z,11.38
2022-10-13T23:59:11.355Z,11.44
